createdAt,value
2022-07-25T16:10:20.829Z,75.44
2022-07-25T16:12:47.883Z,75.68
2022-07-25T16:15:15.041Z,75.69
2022-07-25T16:17:43.077Z,75.34
2022-07-25T16:20:11.274Z,75.92
2022-07-25T16:22:39.516Z,75.38
2022-07-25T16:25:07.502Z,75.33
2022-07-25T16:27:35.265Z,75.55
2022-07-25T16:30:02.235Z,75.81
2022-07-25T16:32:29.450Z,75.41
2022-07-25T16:34:56.482Z,75.08
2022-07-25T16:37:23.648Z,75.53
2022-07-25T16:39:50.805Z,75.38
2022-07-25T16:42:17.844Z,75.13
2022-07-25T16:44:45.075Z,75.05
2022-07-25T16:47:12.147Z,75.21
2022-07-25T16:49:39.201Z,75.30
2022-07-25T16:52:06.705Z,75.29
2022-07-25T16:54:33.809Z,75.50
2022-07-25T16:57:01.590Z,74.72
2022-07-25T16:59:28.738Z,75.24
2022-07-25T17:01:55.980Z,75.38
2022-07-25T17:04:23.569Z,74.90
2022-07-25T17:06:50.679Z,74.72
2022-07-25T17:09:17.769Z,74.67
2022-07-25T17:11:44.830Z,75.08
2022-07-25T17:14:11.976Z,75.05
2022-07-25T17:16:40.793Z,74.65
2022-07-25T17:19:07.968Z,75.02
2022-07-25T17:21:35.253Z,74.79
2022-07-25T17:24:02.509Z,75.21
2022-07-25T17:26:29.773Z,74.77
2022-07-25T17:28:56.792Z,74.79
2022-07-25T17:31:25.199Z,74.74
2022-07-25T17:33:52.285Z,74.37
2022-07-25T17:36:19.315Z,74.24
2022-07-25T17:38:46.696Z,74.55
2022-07-25T17:41:13.717Z,74.34
2022-07-25T17:43:41.495Z,74.01
2022-07-25T17:46:11.124Z,74.05
2022-07-25T17:48:38.274Z,74.23
2022-07-25T17:51:06.244Z,74.56
2022-07-25T17:53:33.428Z,74.40
2022-07-25T17:56:00.483Z,74.06
2022-07-25T17:58:27.532Z,73.86
2022-07-25T18:00:59.531Z,74.15
2022-07-25T18:03:28.803Z,74.69
2022-07-25T18:05:56.134Z,74.86
2022-07-25T18:08:23.165Z,74.52
2022-07-25T18:10:50.476Z,74.52
2022-07-25T18:13:38.259Z,74.57
2022-07-25T18:16:25.795Z,74.90
2022-07-25T18:19:13.020Z,74.73
2022-07-25T18:22:00.127Z,75.29
2022-07-25T18:24:47.324Z,74.92
2022-07-25T18:27:34.329Z,75.33
2022-07-25T18:30:25.893Z,75.49
2022-07-25T18:33:15.652Z,75.01
2022-07-25T18:36:07.353Z,75.21
2022-07-25T18:38:55.463Z,75.46
2022-07-25T18:41:43.853Z,75.55
2022-07-25T18:44:30.864Z,75.41
2022-07-25T18:47:18.369Z,75.65
2022-07-25T18:50:05.713Z,76.00
2022-07-25T18:52:52.891Z,75.91
2022-07-25T18:55:39.768Z,75.71
2022-07-25T18:58:26.833Z,76.07
2022-07-25T19:01:14.044Z,75.70
2022-07-25T19:04:01.215Z,76.16
2022-07-25T19:06:48.209Z,76.21
2022-07-25T19:09:35.458Z,76.33
2022-07-25T19:12:22.525Z,75.92
2022-07-25T19:14:49.523Z,76.56
2022-07-25T19:17:16.738Z,76.50
2022-07-25T19:19:44.080Z,76.64
2022-07-25T19:22:11.190Z,77.07
2022-07-25T19:24:38.421Z,76.44
2022-07-25T19:27:05.902Z,76.85
2022-07-25T19:29:32.988Z,76.59
2022-07-25T19:32:00.108Z,76.69
2022-07-25T19:34:27.306Z,76.31
2022-07-25T19:36:56.525Z,76.36
2022-07-25T19:39:24.616Z,76.97
2022-07-25T19:41:52.389Z,76.44
2022-07-25T19:44:20.089Z,76.74
2022-07-25T19:46:48.775Z,76.58
2022-07-25T19:49:15.944Z,77.48
2022-07-25T19:51:43.201Z,77.39
2022-07-25T19:54:10.698Z,77.28
2022-07-25T19:56:38.094Z,77.59
2022-07-25T19:59:05.839Z,77.69
2022-07-25T20:01:39.479Z,77.90
2022-07-25T20:04:09.248Z,77.56
2022-07-25T20:06:36.613Z,77.79
2022-07-25T20:09:04.885Z,78.00
2022-07-25T20:11:32.463Z,77.98
2022-07-25T20:14:00.525Z,78.98
2022-07-25T20:16:27.826Z,79.01
2022-07-25T20:18:55.140Z,78.91
2022-07-25T20:21:22.640Z,79.01
2022-07-25T20:23:49.641Z,78.76
2022-07-25T20:26:16.714Z,79.00
2022-07-25T20:28:44.085Z,79.14
2022-07-25T20:31:11.275Z,79.69
2022-07-25T20:33:38.692Z,79.94
2022-07-25T20:36:05.768Z,80.48
2022-07-25T20:38:33.026Z,80.26
2022-07-25T20:41:20.827Z,80.61
2022-07-25T20:44:07.996Z,80.67
2022-07-25T20:46:55.890Z,80.60
2022-07-25T20:49:43.911Z,80.91
2022-07-25T20:52:31.100Z,80.79
2022-07-25T20:55:18.062Z,80.65
2022-07-25T20:58:05.528Z,81.35
2022-07-25T21:00:52.707Z,80.85
2022-07-25T21:03:39.911Z,81.25
2022-07-25T21:06:27.551Z,82.01
2022-07-25T21:09:15.044Z,81.67
2022-07-25T21:12:02.110Z,81.83
2022-07-25T21:14:49.202Z,81.76
2022-07-25T21:17:36.143Z,81.68
2022-07-25T21:20:24.367Z,82.20
2022-07-25T21:23:11.330Z,82.19
2022-07-25T21:25:58.517Z,81.91
2022-07-25T21:28:45.470Z,82.36
2022-07-25T21:31:33.221Z,82.68
2022-07-25T21:34:21.208Z,82.95
2022-07-25T21:37:08.518Z,83.04
2022-07-25T21:39:55.518Z,82.77
2022-07-25T21:42:42.520Z,83.22
2022-07-25T21:45:31.713Z,82.92
2022-07-25T21:48:21.881Z,82.99
2022-07-25T21:51:09.198Z,83.67
2022-07-25T21:54:06.580Z,83.05
2022-07-25T21:56:53.484Z,83.06
2022-07-25T21:59:40.637Z,83.47
2022-07-25T22:02:27.636Z,83.43
2022-07-25T22:05:14.733Z,83.64
2022-07-25T22:08:02.974Z,83.54
2022-07-25T22:10:50.132Z,84.03
2022-07-25T22:13:41.413Z,83.43
2022-07-25T22:16:30.350Z,83.85
2022-07-25T22:19:21.902Z,83.87
2022-07-25T22:22:10.332Z,84.22
2022-07-25T22:24:57.181Z,83.94
2022-07-25T22:27:44.252Z,84.43
2022-07-25T22:30:31.837Z,84.17
2022-07-25T22:33:19.005Z,84.30
2022-07-25T22:36:05.973Z,84.19
2022-07-25T22:38:53.082Z,84.12
2022-07-25T22:41:39.964Z,83.96
2022-07-25T22:44:27.743Z,84.30
2022-07-25T22:47:14.698Z,84.24
2022-07-25T22:50:01.814Z,84.58
2022-07-25T22:52:48.757Z,84.07
2022-07-25T22:55:35.786Z,84.21
2022-07-25T22:58:22.751Z,84.23
2022-07-25T23:01:09.848Z,84.36
2022-07-25T23:03:57.244Z,84.63
2022-07-25T23:06:44.419Z,84.46
2022-07-25T23:09:36.479Z,84.47
2022-07-25T23:12:24.857Z,84.32
2022-07-25T23:15:11.825Z,84.75
2022-07-25T23:17:58.925Z,84.36
2022-07-25T23:20:45.802Z,84.16
2022-07-25T23:23:33.253Z,84.29
2022-07-25T23:26:20.209Z,84.57
2022-07-25T23:29:07.684Z,84.91
2022-07-25T23:31:54.741Z,84.47
2022-07-25T23:34:41.978Z,84.55
2022-07-25T23:37:29.229Z,84.87
2022-07-25T23:40:16.329Z,84.67
2022-07-25T23:43:03.317Z,84.85
2022-07-25T23:45:50.797Z,85.09
2022-07-25T23:48:38.086Z,84.72
2022-07-25T23:51:25.534Z,84.89
2022-07-25T23:54:12.533Z,84.92
2022-07-25T23:56:59.626Z,84.86
2022-07-25T23:59:46.624Z,85.40
